Time;durP1;ratioP1;P1;durP2;ratioP2;P2;SDS_P1;SDS_P2;PMS_P1;PMS_P2;Temp;Humidity;BMP_temperature;BMP_pressure;BME280_temperature;BME280_humidity;BME280_pressure;Samples;Min_cycle;Max_cycle;Signal;HPM_P1;HPM_P2
2022/05/25 00:02:44;;;;;;;23.45;16.17;;;;;;;;;;8330315;28;20440;-87
2022/05/25 00:06:48;;;;;;;23.70;17.05;;;;;;;;;;8328439;28;20569;-86
2022/05/25 00:10:51;;;;;;;22.65;17.08;;;;;;;;;;8328849;28;20139;-88
2022/05/25 00:14:53;;;;;;;22.88;16.50;;;;;;;;;;8329807;28;20065;-86
2022/05/25 00:23:18;;;;;;;23.58;16.67;;;;;;;;;;8331806;28;20049;-92
2022/05/25 00:27:21;;;;;;;23.17;16.48;;;;;;;;;;8331561;28;20555;-89
2022/05/25 00:31:23;;;;;;;25.30;17.40;;;;;;;;;;8331563;28;20080;-87
2022/05/25 00:35:28;;;;;;;22.63;16.35;;;;;;;;;;8331502;28;20045;-86
2022/05/25 00:39:32;;;;;;;23.52;16.02;;;;;;;;;;8325106;28;20045;-86
2022/05/25 00:43:35;;;;;;;23.30;15.40;;;;;;;;;;8325134;28;20041;-87
2022/05/25 00:47:40;;;;;;;22.45;15.32;;;;;;;;;;8331123;28;20091;-86
2022/05/25 00:51:45;;;;;;;23.27;14.70;;;;;;;;;;8330975;28;20490;-87
2022/05/25 00:55:51;;;;;;;20.05;14.77;;;;;;;;;;8330969;28;20045;-86
2022/05/25 01:00:02;;;;;;;21.80;15.77;;;;;;;;;;8330978;28;20484;-86
2022/05/25 01:04:05;;;;;;;23.90;15.60;;;;;;;;;;8324567;28;20049;-87
2022/05/25 01:08:21;;;;;;;21.45;14.68;;;;;;;;;;8330604;28;20095;-93
2022/05/25 01:12:45;;;;;;;23.50;15.30;;;;;;;;;;8330552;28;20131;-86
2022/05/25 01:16:58;;;;;;;25.02;16.27;;;;;;;;;;8330357;28;20048;-86
2022/05/25 01:21:02;;;;;;;;;;;;;;;;;;8330872;28;20049;-86
2022/05/25 01:25:16;;;;;;;23.98;15.18;;;;;;;;;;8330325;28;20336;-86
2022/05/25 01:29:48;;;;;;;21.50;14.90;;;;;;;;;;8330385;28;20049;-88
2022/05/25 01:33:56;;;;;;;20.88;14.55;;;;;;;;;;8326219;28;20045;-86
2022/05/25 01:38:04;;;;;;;22.40;15.05;;;;;;;;;;8329800;28;20095;-88
2022/05/25 01:42:13;;;;;;;23.65;14.55;;;;;;;;;;8330175;28;20164;-87
2022/05/25 01:46:21;;;;;;;23.88;16.08;;;;;;;;;;8330212;28;20045;-86
2022/05/25 01:50:31;;;;;;;23.55;15.60;;;;;;;;;;8329835;28;20054;-87
2022/05/25 01:54:36;;;;;;;23.92;15.27;;;;;;;;;;8330035;28;20045;-87
2022/05/25 01:58:41;;;;;;;25.50;16.10;;;;;;;;;;8330041;28;20104;-86
2022/05/25 02:07:25;;;;;;;30.20;16.08;;;;;;;;;;8329954;28;20536;-85
2022/05/25 02:11:34;;;;;;;33.25;17.55;;;;;;;;;;8329782;28;20504;-86
2022/05/25 02:15:45;;;;;;;26.98;16.52;;;;;;;;;;8329580;28;20041;-86
2022/05/25 02:19:56;;;;;;;28.88;16.08;;;;;;;;;;8329713;28;20462;-86
2022/05/25 02:24:09;;;;;;;30.55;16.67;;;;;;;;;;8329468;28;20046;-86
2022/05/25 02:28:16;;;;;;;30.23;16.45;;;;;;;;;;8332046;28;20072;-86
2022/05/25 02:32:24;;;;;;;30.90;17.60;;;;;;;;;;8335526;28;20514;-87
2022/05/25 02:36:29;;;;;;;32.15;16.60;;;;;;;;;;8335172;28;20044;-86
2022/05/25 02:40:34;;;;;;;28.88;16.70;;;;;;;;;;8335017;28;20091;-87
2022/05/25 02:44:37;;;;;;;31.02;18.15;;;;;;;;;;8334920;28;20053;-86
2022/05/25 02:48:40;;;;;;;32.03;18.40;;;;;;;;;;8334905;28;20056;-86
2022/05/25 02:52:43;;;;;;;42.30;25.20;;;;;;;;;;8334671;28;20494;-87
2022/05/25 02:56:46;;;;;;;36.25;24.08;;;;;;;;;;8334523;28;20041;-86
2022/05/25 03:00:49;;;;;;;42.83;27.40;;;;;;;;;;8334353;28;20045;-86
2022/05/25 03:04:52;;;;;;;33.35;19.83;;;;;;;;;;8334444;28;20107;-87
2022/05/25 03:08:56;;;;;;;31.88;20.05;;;;;;;;;;8334158;28;20080;-86
2022/05/25 03:12:59;;;;;;;31.02;18.90;;;;;;;;;;8334187;28;20052;-86
2022/05/25 03:17:09;;;;;;;29.08;18.10;;;;;;;;;;8334100;28;20037;-86
2022/05/25 03:21:12;;;;;;;28.13;18.48;;;;;;;;;;8334001;28;20037;-86
2022/05/25 03:25:16;;;;;;;27.23;17.23;;;;;;;;;;8333663;28;20107;-86
2022/05/25 03:29:20;;;;;;;25.27;17.38;;;;;;;;;;8332353;28;20456;-87
2022/05/25 03:33:23;;;;;;;25.67;15.80;;;;;;;;;;8333532;28;20116;-87
2022/05/25 03:37:26;;;;;;;26.80;16.58;;;;;;;;;;8333369;28;20456;-87
2022/05/25 03:41:30;;;;;;;28.38;18.38;;;;;;;;;;8333334;28;20539;-86
2022/05/25 03:45:33;;;;;;;28.63;18.23;;;;;;;;;;8333064;28;20485;-87
2022/05/25 03:49:37;;;;;;;28.13;19.48;;;;;;;;;;8326749;28;20045;-87
2022/05/25 03:53:40;;;;;;;30.95;19.58;;;;;;;;;;8326085;28;20115;-87
2022/05/25 03:57:45;;;;;;;28.60;18.90;;;;;;;;;;8332621;28;20137;-86
2022/05/25 04:01:47;;;;;;;29.23;18.80;;;;;;;;;;8328270;28;20049;-86
2022/05/25 04:05:51;;;;;;;26.77;17.88;;;;;;;;;;8332278;28;20105;-86
2022/05/25 04:09:54;;;;;;;26.27;18.88;;;;;;;;;;8332142;28;20432;-86
2022/05/25 04:13:58;;;;;;;29.63;19.10;;;;;;;;;;8332034;28;20476;-86
2022/05/25 04:18:01;;;;;;;33.72;19.92;;;;;;;;;;8331972;28;20049;-86
2022/05/25 04:22:04;;;;;;;36.70;21.25;;;;;;;;;;8323015;28;20045;-88
2022/05/25 04:26:08;;;;;;;31.67;20.55;;;;;;;;;;8310329;28;20479;-88
2022/05/25 04:30:15;;;;;;;39.70;23.42;;;;;;;;;;8331500;28;20099;-88
2022/05/25 04:34:19;;;;;;;41.88;22.52;;;;;;;;;;8331682;28;20046;-88
2022/05/25 04:38:24;;;;;;;31.92;21.27;;;;;;;;;;8331058;28;20037;-88
2022/05/25 04:42:29;;;;;;;30.60;20.23;;;;;;;;;;8331962;28;20092;-87
2022/05/25 04:46:35;;;;;;;28.60;18.67;;;;;;;;;;8331160;28;20049;-88
2022/05/25 04:50:46;;;;;;;27.50;18.40;;;;;;;;;;8331878;28;20463;-95
2022/05/25 04:54:54;;;;;;;28.33;18.98;;;;;;;;;;8328176;28;20049;-89
2022/05/25 04:59:00;;;;;;;22.33;18.35;;;;;;;;;;8330661;28;20037;-91
2022/05/25 05:03:07;;;;;;;23.77;17.92;;;;;;;;;;8330662;28;20099;-88
2022/05/25 05:07:11;;;;;;;22.77;17.90;;;;;;;;;;8324930;28;20088;-88
2022/05/25 05:11:18;;;;;;;23.35;17.02;;;;;;;;;;8320487;28;20049;-87
2022/05/25 05:15:23;;;;;;;20.83;15.85;;;;;;;;;;8320766;28;20409;-92
2022/05/25 05:19:29;;;;;;;26.08;19.20;;;;;;;;;;8330258;28;20132;-89
2022/05/25 05:23:34;;;;;;;22.52;16.92;;;;;;;;;;8328925;28;20088;-89
2022/05/25 05:27:38;;;;;;;21.52;16.67;;;;;;;;;;8327905;28;20077;-90
2022/05/25 05:31:43;;;;;;;22.42;16.35;;;;;;;;;;8330005;28;20501;-90
2022/05/25 05:35:52;;;;;;;23.45;16.83;;;;;;;;;;8329227;28;20105;-90
2022/05/25 05:39:58;;;;;;;21.95;15.65;;;;;;;;;;8329988;28;20493;-90
2022/05/25 05:44:04;;;;;;;23.00;17.05;;;;;;;;;;8330016;28;20073;-90
2022/05/25 05:48:15;;;;;;;24.80;17.45;;;;;;;;;;8327752;28;20057;-90
2022/05/25 05:52:20;;;;;;;24.60;16.25;;;;;;;;;;8327570;28;20061;-89
2022/05/25 05:56:32;;;;;;;27.15;17.30;;;;;;;;;;8321873;28;20124;-89
2022/05/25 06:00:39;;;;;;;25.42;19.23;;;;;;;;;;8315441;28;20504;-88
2022/05/25 06:04:47;;;;;;;23.58;17.70;;;;;;;;;;8330295;28;20417;-90
2022/05/25 06:09:01;;;;;;;28.60;17.38;;;;;;;;;;8322697;28;20111;-91
2022/05/25 06:13:12;;;;;;;30.02;18.58;;;;;;;;;;8329100;28;20132;-88
2022/05/25 06:21:51;;;;;;;26.30;19.20;;;;;;;;;;8292056;28;20060;-90
2022/05/25 06:25:57;;;;;;;27.02;18.80;;;;;;;;;;8331126;28;20396;-90
2022/05/25 06:30:03;;;;;;;23.38;17.73;;;;;;;;;;8328535;28;20075;-90
2022/05/25 06:34:07;;;;;;;23.23;17.52;;;;;;;;;;8326258;28;20080;-90
2022/05/25 06:38:10;;;;;;;23.02;17.55;;;;;;;;;;8330034;28;20485;-90
2022/05/25 06:42:18;;;;;;;25.08;18.08;;;;;;;;;;8330238;28;20409;-88
2022/05/25 06:46:23;;;;;;;26.65;17.65;;;;;;;;;;8330533;28;20743;-88
2022/05/25 06:50:32;;;;;;;25.23;18.58;;;;;;;;;;8320566;28;20437;-90
2022/05/25 06:54:38;;;;;;;25.17;18.50;;;;;;;;;;8328052;28;20042;-90
2022/05/25 06:58:46;;;;;;;28.73;19.48;;;;;;;;;;8329878;28;20065;-90
2022/05/25 07:03:11;;;;;;;23.05;18.60;;;;;;;;;;8329271;28;20053;-90
2022/05/25 07:12:05;;;;;;;29.15;20.63;;;;;;;;;;8327840;28;20053;-89
2022/05/25 07:16:42;;;;;;;27.42;19.38;;;;;;;;;;8329237;28;20056;-90
2022/05/25 07:21:10;;;;;;;28.25;18.67;;;;;;;;;;8328817;28;20172;-89
2022/05/25 07:25:24;;;;;;;26.00;19.23;;;;;;;;;;8322813;28;20045;-89
2022/05/25 07:29:37;;;;;;;26.15;18.58;;;;;;;;;;8322894;28;20220;-90
2022/05/25 07:33:50;;;;;;;27.08;19.48;;;;;;;;;;8323982;28;20136;-89
2022/05/25 07:37:59;;;;;;;26.48;18.13;;;;;;;;;;8320682;28;20049;-89
2022/05/25 07:42:14;;;;;;;24.50;18.83;;;;;;;;;;8328201;28;20042;-89
2022/05/25 07:46:23;;;;;;;25.48;18.00;;;;;;;;;;8322812;28;20679;-89
2022/05/25 07:50:33;;;;;;;25.30;17.50;;;;;;;;;;8320226;28;20041;-88
2022/05/25 07:54:43;;;;;;;23.52;17.73;;;;;;;;;;8326316;28;20045;-90
2022/05/25 07:58:50;;;;;;;24.85;18.25;;;;;;;;;;8324479;28;20450;-89
2022/05/25 08:07:23;;;;;;;25.58;18.98;;;;;;;;;;8321622;28;20049;-88
2022/05/25 08:11:36;;;;;;;26.98;18.52;;;;;;;;;;8327115;28;20138;-86
2022/05/25 08:15:44;;;;;;;26.63;19.15;;;;;;;;;;8328155;28;20041;-88
2022/05/25 08:19:48;;;;;;;23.88;18.17;;;;;;;;;;8316362;28;20060;-92
2022/05/25 08:23:56;;;;;;;26.75;18.63;;;;;;;;;;8309598;28;20049;-89
2022/05/25 08:28:00;;;;;;;26.90;18.73;;;;;;;;;;8313428;28;20047;-87
2022/05/25 08:32:03;;;;;;;27.83;18.08;;;;;;;;;;8325160;28;20501;-87
2022/05/25 08:36:11;;;;;;;25.98;18.73;;;;;;;;;;8319835;28;20046;-92
2022/05/25 08:40:19;;;;;;;26.75;17.42;;;;;;;;;;8328235;28;20044;-88
2022/05/25 08:44:25;;;;;;;25.75;17.48;;;;;;;;;;8327677;28;20485;-88
2022/05/25 08:48:30;;;;;;;24.73;18.42;;;;;;;;;;8331201;28;20072;-88
2022/05/25 08:52:38;;;;;;;23.70;17.00;;;;;;;;;;8326853;28;20057;-90
2022/05/25 08:56:50;;;;;;;24.27;16.83;;;;;;;;;;8333538;28;20128;-93
2022/05/25 09:00:59;;;;;;;23.05;16.45;;;;;;;;;;8332832;28;20048;-86
2022/05/25 09:05:10;;;;;;;23.02;17.13;;;;;;;;;;8329667;28;20041;-88
2022/05/25 09:09:19;;;;;;;;;;;;;;;;;;8328842;28;20508;-87
2022/05/25 09:13:34;;;;;;;22.33;15.63;;;;;;;;;;8325737;28;19921;-87
2022/05/25 09:17:47;;;;;;;25.38;17.45;;;;;;;;;;8330072;28;20115;-94
2022/05/25 09:21:53;;;;;;;;;;;;;;;;;;8331422;28;20473;-93
2022/05/25 09:26:01;;;;;;;31.33;21.42;;;;;;;;;;8327650;28;19928;-89
2022/05/25 09:30:10;;;;;;;30.00;20.85;;;;;;;;;;8329761;28;20048;-93
2022/05/25 09:34:31;;;;;;;25.33;19.92;;;;;;;;;;8324858;28;20107;-90
2022/05/25 09:38:45;;;;;;;28.70;20.50;;;;;;;;;;8332377;28;20080;-90
2022/05/25 09:42:58;;;;;;;23.27;18.52;;;;;;;;;;8335886;28;20090;-92
2022/05/25 09:47:11;;;;;;;26.35;17.45;;;;;;;;;;8337592;28;20050;-95
2022/05/25 09:51:33;;;;;;;27.75;17.70;;;;;;;;;;8322915;28;20060;-90
2022/05/25 09:55:42;;;;;;;22.77;16.85;;;;;;;;;;8324152;28;20413;-85
2022/05/25 09:59:56;;;;;;;23.23;17.73;;;;;;;;;;8329079;28;20045;-86
2022/05/25 10:04:05;;;;;;;26.45;18.00;;;;;;;;;;8326785;28;20145;-88
2022/05/25 10:08:17;;;;;;;27.30;19.27;;;;;;;;;;8332242;28;20041;-86
2022/05/25 10:12:30;;;;;;;29.50;21.02;;;;;;;;;;8329289;28;20441;-85
2022/05/25 10:16:36;;;;;;;36.95;23.33;;;;;;;;;;8332272;28;20079;-86
2022/05/25 10:20:54;;;;;;;18.05;7.85;;;;;;;;;;8330714;28;20045;-88
2022/05/25 10:25:05;;;;;;;30.05;6.00;;;;;;;;;;8328684;28;20144;-84
2022/05/25 10:29:12;;;;;;;28.73;6.30;;;;;;;;;;8335837;28;20402;-85
2022/05/25 10:37:48;;;;;;;19.95;7.78;;;;;;;;;;8334970;28;20060;-84
2022/05/25 10:42:07;;;;;;;10.35;5.68;;;;;;;;;;8330354;28;20493;-86
2022/05/25 10:46:10;;;;;;;9.98;5.38;;;;;;;;;;8332807;28;20128;-83
2022/05/25 10:50:19;;;;;;;10.23;5.32;;;;;;;;;;8332797;28;20045;-84
2022/05/25 10:54:47;;;;;;;9.45;5.00;;;;;;;;;;8334347;28;20088;-83
2022/05/25 10:59:12;;;;;;;11.60;5.45;;;;;;;;;;8334733;28;20049;-83
2022/05/25 11:03:41;;;;;;;9.93;6.65;;;;;;;;;;8306987;28;20046;-83
2022/05/25 11:07:48;;;;;;;11.35;6.50;;;;;;;;;;8337708;28;20060;-95
2022/05/25 11:12:04;;;;;;;11.23;6.70;;;;;;;;;;8320789;28;20041;-83
2022/05/25 11:16:35;;;;;;;10.25;7.13;;;;;;;;;;8327275;28;20133;-84
2022/05/25 11:20:46;;;;;;;10.38;5.85;;;;;;;;;;8332410;28;20049;-86
2022/05/25 11:25:02;;;;;;;10.07;5.68;;;;;;;;;;8331288;28;20099;-85
2022/05/25 11:29:18;;;;;;;7.85;5.50;;;;;;;;;;8329831;28;20045;-84
2022/05/25 11:33:50;;;;;;;9.50;5.28;;;;;;;;;;8326691;28;20476;-82
2022/05/25 11:38:17;;;;;;;7.88;5.55;;;;;;;;;;8329105;28;20581;-83
2022/05/25 11:42:59;;;;;;;11.48;6.05;;;;;;;;;;8328526;28;20454;-83
2022/05/25 11:47:35;;;;;;;9.35;5.00;;;;;;;;;;8328117;28;20053;-88
2022/05/25 11:51:56;;;;;;;10.00;5.70;;;;;;;;;;8326498;28;20089;-87
2022/05/25 11:56:23;;;;;;;8.93;5.25;;;;;;;;;;8320055;28;20565;-86
2022/05/25 12:00:41;;;;;;;8.17;5.50;;;;;;;;;;8322120;28;20127;-85
2022/05/25 12:05:10;;;;;;;9.45;4.60;;;;;;;;;;8327820;28;20049;-84
2022/05/25 12:09:27;;;;;;;7.97;4.55;;;;;;;;;;8327506;28;20045;-86
2022/05/25 12:13:38;;;;;;;7.45;3.63;;;;;;;;;;8320915;28;20079;-85
2022/05/25 12:17:59;;;;;;;7.45;3.65;;;;;;;;;;8327397;28;20041;-86
2022/05/25 12:22:20;;;;;;;7.60;3.40;;;;;;;;;;8327390;28;20045;-84
2022/05/25 12:26:44;;;;;;;10.13;3.60;;;;;;;;;;8326986;28;20103;-84
2022/05/25 12:30:54;;;;;;;3.63;2.40;;;;;;;;;;8320539;28;20064;-86
2022/05/25 12:34:59;;;;;;;4.88;2.58;;;;;;;;;;8326726;28;20049;-84
2022/05/25 12:48:30;;;;;;;3.35;2.10;;;;;;;;;;8326125;28;20041;-84
2022/05/25 12:49:03;;;;;;;3.70;1.95;;;;;;;;;;8324826;28;20049;-86
2022/05/25 12:53:37;;;;;;;3.85;2.05;;;;;;;;;;8316338;28;20115;-85
2022/05/25 12:57:50;;;;;;;4.30;2.88;;;;;;;;;;8325980;28;20498;-85
2022/05/25 13:02:30;;;;;;;5.43;2.63;;;;;;;;;;8326341;28;20507;-85
2022/05/25 13:07:08;;;;;;;;;;;;;;;;;;8321159;28;20045;-85
2022/05/25 13:11:36;;;;;;;4.65;2.50;;;;;;;;;;8322834;28;20019;-85
2022/05/25 13:15:47;;;;;;;4.50;2.65;;;;;;;;;;8322271;28;20061;-85
2022/05/25 13:19:52;;;;;;;7.07;3.78;;;;;;;;;;8323779;28;20472;-85
2022/05/25 13:24:37;;;;;;;7.55;3.67;;;;;;;;;;8322848;28;20072;-87
2022/05/25 13:29:08;;;;;;;4.53;2.60;;;;;;;;;;8320960;28;20057;-86
2022/05/25 13:33:40;;;;;;;4.55;2.70;;;;;;;;;;8322096;28;20124;-86
2022/05/25 13:37:52;;;;;;;6.82;3.20;;;;;;;;;;8323952;28;20096;-92
2022/05/25 13:42:00;;;;;;;8.00;3.00;;;;;;;;;;8322003;28;20127;-85
2022/05/25 13:46:03;;;;;;;4.82;2.50;;;;;;;;;;8324468;28;20045;-86
2022/05/25 13:50:13;;;;;;;4.05;2.45;;;;;;;;;;8321680;28;20045;-86
2022/05/25 13:54:26;;;;;;;6.72;2.75;;;;;;;;;;8327772;28;20061;-87
2022/05/25 13:58:29;;;;;;;6.93;2.58;;;;;;;;;;8329990;28;20416;-87
2022/05/25 14:02:34;;;;;;;3.47;2.20;;;;;;;;;;8329721;28;20053;-86
2022/05/25 14:06:45;;;;;;;4.65;2.78;;;;;;;;;;8329839;28;20049;-86
2022/05/25 14:10:58;;;;;;;7.82;3.97;;;;;;;;;;8329697;28;20493;-87
2022/05/25 14:15:01;;;;;;;4.80;3.35;;;;;;;;;;8329633;28;20072;-87
2022/05/25 14:19:05;;;;;;;4.80;3.00;;;;;;;;;;8329604;28;20045;-87
2022/05/25 14:23:10;;;;;;;5.82;3.83;;;;;;;;;;8330547;28;20555;-86
2022/05/25 14:27:21;;;;;;;5.15;3.00;;;;;;;;;;8335980;28;20042;-86
2022/05/25 14:31:25;;;;;;;4.27;2.50;;;;;;;;;;8334554;28;20045;-87
2022/05/25 14:35:30;;;;;;;3.25;2.13;;;;;;;;;;8335550;28;20046;-86
2022/05/25 14:39:37;;;;;;;4.28;2.55;;;;;;;;;;8335373;28;20099;-86
2022/05/25 14:43:44;;;;;;;4.57;2.80;;;;;;;;;;8335372;28;20053;-86
2022/05/25 14:47:49;;;;;;;4.72;3.00;;;;;;;;;;8335047;28;20544;-86
2022/05/25 14:51:52;;;;;;;4.03;2.50;;;;;;;;;;8306292;28;20583;-86
2022/05/25 14:56:06;;;;;;;4.10;2.13;;;;;;;;;;8318824;28;20056;-86
2022/05/25 15:00:26;;;;;;;3.60;2.42;;;;;;;;;;8331814;28;20050;-86
2022/05/25 15:04:34;;;;;;;3.75;2.30;;;;;;;;;;8331448;28;20079;-85
2022/05/25 15:08:43;;;;;;;4.85;2.65;;;;;;;;;;8332037;28;20041;-86
2022/05/25 15:12:51;;;;;;;5.05;2.58;;;;;;;;;;8311255;28;20119;-92
2022/05/25 15:21:33;;;;;;;5.32;2.90;;;;;;;;;;8336457;28;20073;-90
2022/05/25 15:25:41;;;;;;;6.30;3.13;;;;;;;;;;8332689;28;20564;-95
2022/05/25 15:29:53;;;;;;;7.00;3.50;;;;;;;;;;8326729;28;20045;-87
2022/05/25 15:34:00;;;;;;;6.72;3.20;;;;;;;;;;8322899;28;20052;-91
2022/05/25 15:38:05;;;;;;;5.85;3.00;;;;;;;;;;8333847;28;20049;-85
2022/05/25 15:42:09;;;;;;;5.70;3.20;;;;;;;;;;8328107;28;20049;-85
2022/05/25 15:46:21;;;;;;;7.72;3.40;;;;;;;;;;8318119;28;20081;-95
2022/05/25 15:50:26;;;;;;;5.67;3.13;;;;;;;;;;8328462;28;20034;-89
2022/05/25 15:55:03;;;;;;;8.68;3.58;;;;;;;;;;8308515;28;20132;-85
2022/05/25 15:59:08;;;;;;;13.73;7.72;;;;;;;;;;8329365;28;20052;-85
2022/05/25 16:03:21;;;;;;;9.70;5.43;;;;;;;;;;8328519;28;20044;-95
2022/05/25 16:09:11;;;;;;;7.95;4.20;;;;;;;;;;8320230;28;20046;-85
2022/05/25 16:11:54;;;;;;;10.65;5.60;;;;;;;;;;8326220;28;20568;-84
2022/05/25 16:15:59;;;;;;;14.05;9.23;;;;;;;;;;8320701;28;20107;-84
2022/05/25 16:20:08;;;;;;;9.38;5.55;;;;;;;;;;8329225;28;20533;-84
2022/05/25 16:24:14;;;;;;;16.17;5.07;;;;;;;;;;8325329;28;20049;-84
2022/05/25 16:28:18;;;;;;;11.77;4.70;;;;;;;;;;8332706;28;20060;-83
2022/05/25 16:32:22;;;;;;;9.98;5.57;;;;;;;;;;8331748;28;20049;-84
2022/05/25 16:36:29;;;;;;;14.80;6.97;;;;;;;;;;8331853;28;20045;-83
2022/05/25 16:40:36;;;;;;;10.75;5.38;;;;;;;;;;8328952;28;20045;-88
2022/05/25 16:44:40;;;;;;;9.35;5.03;;;;;;;;;;8325496;28;20128;-84
2022/05/25 16:48:43;;;;;;;5.55;3.67;;;;;;;;;;8325837;28;20053;-84
2022/05/25 16:52:47;;;;;;;7.03;4.18;;;;;;;;;;8319522;28;20559;-85
2022/05/25 16:56:54;;;;;;;9.30;4.60;;;;;;;;;;8324618;28;20107;-89
2022/05/25 17:00:59;;;;;;;7.63;4.75;;;;;;;;;;8308442;28;20514;-84
2022/05/25 17:05:02;;;;;;;8.15;3.90;;;;;;;;;;8325954;28;20123;-84
2022/05/25 17:09:09;;;;;;;7.30;4.53;;;;;;;;;;8325773;28;20049;-84
2022/05/25 17:13:12;;;;;;;6.85;4.20;;;;;;;;;;8325193;28;20062;-84
2022/05/25 17:17:17;;;;;;;7.95;4.45;;;;;;;;;;8327031;28;20544;-83
2022/05/25 17:21:23;;;;;;;9.48;5.75;;;;;;;;;;8326134;28;20441;-84
2022/05/25 17:25:31;;;;;;;7.53;4.60;;;;;;;;;;8323524;28;20049;-84
2022/05/25 17:29:36;;;;;;;6.90;4.72;;;;;;;;;;8317580;28;20444;-84
2022/05/25 17:33:40;;;;;;;9.93;5.80;;;;;;;;;;8323488;28;20049;-84
2022/05/25 17:42:07;;;;;;;7.38;4.95;;;;;;;;;;8328926;28;20052;-85
2022/05/25 17:46:10;;;;;;;6.60;4.07;;;;;;;;;;8323578;28;20386;-84
2022/05/25 17:50:15;;;;;;;8.52;5.50;;;;;;;;;;8322765;28;20498;-84
2022/05/25 17:54:20;;;;;;;8.45;4.80;;;;;;;;;;8329414;28;20191;-83
2022/05/25 17:58:25;;;;;;;7.68;4.68;;;;;;;;;;8332949;28;20056;-84
2022/05/25 18:02:29;;;;;;;6.57;4.47;;;;;;;;;;8334469;28;20477;-84
2022/05/25 18:06:36;;;;;;;7.93;4.90;;;;;;;;;;8335821;28;20053;-85
2022/05/25 18:10:44;;;;;;;10.55;5.45;;;;;;;;;;8330625;28;20091;-84
2022/05/25 18:14:57;;;;;;;10.38;6.38;;;;;;;;;;8336336;28;20489;-85
2022/05/25 18:19:04;;;;;;;9.10;5.20;;;;;;;;;;8329527;28;20050;-84
2022/05/25 18:23:09;;;;;;;10.80;6.15;;;;;;;;;;8317808;28;20052;-85
2022/05/25 18:27:24;;;;;;;10.23;5.65;;;;;;;;;;8324127;28;20057;-85
2022/05/25 18:31:33;;;;;;;9.98;6.78;;;;;;;;;;8335656;28;20052;-95
2022/05/25 18:35:39;;;;;;;11.60;6.97;;;;;;;;;;8343678;28;20057;-86
2022/05/25 18:39:47;;;;;;;10.20;6.47;;;;;;;;;;8333385;28;20045;-84
2022/05/25 18:43:56;;;;;;;14.65;7.88;;;;;;;;;;8339373;28;20051;-85
2022/05/25 18:48:02;;;;;;;14.68;7.50;;;;;;;;;;8346253;28;20128;-89
2022/05/25 18:52:07;;;;;;;14.32;8.35;;;;;;;;;;8343334;28;20421;-93
2022/05/25 18:56:11;;;;;;;15.07;8.77;;;;;;;;;;8338225;28;20413;-85
2022/05/25 19:00:21;;;;;;;14.27;8.20;;;;;;;;;;8334631;28;20060;-85
2022/05/25 19:04:28;;;;;;;14.43;7.35;;;;;;;;;;8334315;28;20042;-83
2022/05/25 19:08:34;;;;;;;14.13;7.03;;;;;;;;;;8331577;28;20069;-84
2022/05/25 19:12:37;;;;;;;11.15;6.80;;;;;;;;;;8327384;28;20048;-84
2022/05/25 19:16:43;;;;;;;9.20;6.55;;;;;;;;;;8332832;28;20055;-92
2022/05/25 19:20:48;;;;;;;9.48;6.60;;;;;;;;;;8334481;28;20052;-83
2022/05/25 19:24:55;;;;;;;12.25;7.18;;;;;;;;;;8334041;28;20069;-84
2022/05/25 19:28:59;;;;;;;11.70;6.80;;;;;;;;;;8334327;28;20466;-84
2022/05/25 19:33:05;;;;;;;13.02;7.15;;;;;;;;;;8333647;28;20056;-83
2022/05/25 19:37:10;;;;;;;12.43;7.13;;;;;;;;;;8331670;28;20049;-84
2022/05/25 19:41:15;;;;;;;11.13;6.82;;;;;;;;;;8331868;28;20494;-84
2022/05/25 19:45:19;;;;;;;9.80;6.68;;;;;;;;;;8335684;28;20049;-90
2022/05/25 19:53:47;;;;;;;13.27;6.72;;;;;;;;;;8330710;28;20723;-85
2022/05/25 19:57:56;;;;;;;13.23;7.22;;;;;;;;;;8330552;28;20056;-84
2022/05/25 20:02:00;;;;;;;11.77;7.10;;;;;;;;;;8331339;28;20474;-84
2022/05/25 20:06:05;;;;;;;9.55;6.65;;;;;;;;;;8332654;28;20052;-84
2022/05/25 20:10:13;;;;;;;12.60;6.75;;;;;;;;;;8332521;28;20046;-84
2022/05/25 20:14:16;;;;;;;12.68;6.88;;;;;;;;;;8332388;28;20049;-84
2022/05/25 20:18:22;;;;;;;13.00;6.05;;;;;;;;;;8332925;28;20440;-84
2022/05/25 20:22:28;;;;;;;11.85;6.57;;;;;;;;;;8332047;28;20049;-85
2022/05/25 20:26:34;;;;;;;12.07;6.05;;;;;;;;;;8332053;28;20050;-84
2022/05/25 20:30:39;;;;;;;12.55;6.30;;;;;;;;;;8332261;28;20099;-84
2022/05/25 20:34:42;;;;;;;12.73;5.68;;;;;;;;;;8331613;28;20046;-84
2022/05/25 20:38:45;;;;;;;10.52;6.40;;;;;;;;;;8331623;28;20045;-84
2022/05/25 20:42:50;;;;;;;10.25;6.10;;;;;;;;;;8331987;28;20500;-84
2022/05/25 20:46:54;;;;;;;9.75;6.30;;;;;;;;;;8325509;28;20045;-84
2022/05/25 20:50:57;;;;;;;11.48;6.40;;;;;;;;;;8324588;28;20057;-83
2022/05/25 20:55:01;;;;;;;11.77;6.50;;;;;;;;;;8331243;28;20481;-84
2022/05/25 20:59:06;;;;;;;16.63;8.60;;;;;;;;;;8331073;28;20049;-84
2022/05/25 21:03:13;;;;;;;9.90;5.70;;;;;;;;;;8331158;28;20052;-84
2022/05/25 21:07:17;;;;;;;9.20;5.93;;;;;;;;;;8331069;28;20470;-84
2022/05/25 21:11:21;;;;;;;9.57;6.25;;;;;;;;;;8329549;28;20061;-84
2022/05/25 21:15:26;;;;;;;46.20;14.73;;;;;;;;;;8331046;28;20076;-84
2022/05/25 21:19:34;;;;;;;58.38;19.80;;;;;;;;;;8330782;28;20108;-84
2022/05/25 21:23:37;;;;;;;23.90;9.98;;;;;;;;;;8330656;28;20045;-85
2022/05/25 21:27:40;;;;;;;19.20;8.52;;;;;;;;;;8330006;28;20045;-84
2022/05/25 21:36:11;;;;;;;23.70;10.38;;;;;;;;;;8323650;28;20046;-84
2022/05/25 21:40:14;;;;;;;25.55;11.48;;;;;;;;;;8330599;28;20048;-84
2022/05/25 21:44:17;;;;;;;13.73;8.82;;;;;;;;;;8330405;28;20069;-84
2022/05/25 21:52:44;;;;;;;11.60;7.35;;;;;;;;;;8330172;28;20053;-84
2022/05/25 21:56:46;;;;;;;13.27;7.38;;;;;;;;;;8330484;28;20053;-93
2022/05/25 22:00:55;;;;;;;12.20;7.72;;;;;;;;;;8330328;28;20042;-84
2022/05/25 22:04:59;;;;;;;14.40;8.50;;;;;;;;;;8324556;28;20041;-84
2022/05/25 22:09:01;;;;;;;17.35;10.07;;;;;;;;;;8330240;28;20482;-87
2022/05/25 22:13:04;;;;;;;24.35;12.65;;;;;;;;;;8323353;28;20545;-84
2022/05/25 22:17:07;;;;;;;14.40;8.88;;;;;;;;;;8329804;28;20064;-84
2022/05/25 22:21:11;;;;;;;20.48;10.88;;;;;;;;;;8329688;28;20124;-84
2022/05/25 22:25:14;;;;;;;19.48;10.88;;;;;;;;;;8329630;28;20137;-84
2022/05/25 22:29:16;;;;;;;17.27;9.63;;;;;;;;;;8329555;28;20041;-84
2022/05/25 22:33:19;;;;;;;15.52;9.77;;;;;;;;;;8329550;28;20045;-84
2022/05/25 22:37:23;;;;;;;16.58;10.35;;;;;;;;;;8329601;28;20069;-84
2022/05/25 22:41:26;;;;;;;15.57;9.93;;;;;;;;;;8329381;28;20059;-84
2022/05/25 22:45:28;;;;;;;13.63;9.27;;;;;;;;;;8332206;28;20052;-84
2022/05/25 22:49:31;;;;;;;14.77;9.10;;;;;;;;;;8335248;28;20057;-84
2022/05/25 22:53:36;;;;;;;17.42;10.30;;;;;;;;;;8334890;28;20153;-85
2022/05/25 22:57:39;;;;;;;14.48;9.38;;;;;;;;;;8334736;28;20072;-84
2022/05/25 23:01:41;;;;;;;14.13;9.20;;;;;;;;;;8334663;28;20098;-85
2022/05/25 23:05:45;;;;;;;14.68;10.20;;;;;;;;;;8334478;28;20120;-84
2022/05/25 23:09:49;;;;;;;15.77;9.23;;;;;;;;;;8334664;28;20076;-84
2022/05/25 23:13:51;;;;;;;15.02;9.90;;;;;;;;;;8327982;28;20386;-84
2022/05/25 23:17:54;;;;;;;13.20;9.00;;;;;;;;;;8334139;28;20056;-84
2022/05/25 23:21:57;;;;;;;16.17;9.93;;;;;;;;;;8333908;28;20048;-84
2022/05/25 23:26:01;;;;;;;17.15;10.40;;;;;;;;;;8333878;28;20092;-84
2022/05/25 23:30:06;;;;;;;14.35;9.05;;;;;;;;;;8333882;28;20071;-85
2022/05/25 23:34:09;;;;;;;15.70;10.15;;;;;;;;;;8333747;28;20056;-85
2022/05/25 23:38:11;;;;;;;14.57;9.07;;;;;;;;;;8333570;28;20128;-85
2022/05/25 23:46:36;;;;;;;14.27;9.40;;;;;;;;;;8333427;28;20045;-85
2022/05/25 23:50:38;;;;;;;12.70;8.75;;;;;;;;;;8332972;28;20045;-85
2022/05/25 23:54:41;;;;;;;14.15;8.45;;;;;;;;;;8332770;28;20102;-85
2022/05/25 23:58:45;;;;;;;11.68;7.45;;;;;;;;;;8332778;28;20049;-84
